Time;durP1;ratioP1;P1;durP2;ratioP2;P2;SDS_P1;SDS_P2;PMS_P1;PMS_P2;Temp;Humidity;BMP_temperature;BMP_pressure;BME280_temperature;BME280_humidity;BME280_pressure;Samples;Min_cycle;Max_cycle;Signal;HPM_P1;HPM_P2
2022/09/23 00:01:16;;;;;;;7.10;4.07;;;;;;;10.43;77.91;100239.16;5066749;28;20031;-32
2022/09/23 00:03:47;;;;;;;10.27;4.22;;;;;;;10.62;77.40;100229.41;5066980;28;20040;-27
2022/09/23 00:06:21;;;;;;;6.95;3.90;;;;;;;10.91;76.39;100255.69;5066682;28;20123;-26
2022/09/23 00:08:50;;;;;;;9.45;4.88;;;;;;;10.53;77.89;100236.03;5066728;28;20040;-28
2022/09/23 00:11:19;;;;;;;8.68;4.03;;;;;;;10.70;77.77;100248.84;5067006;28;20120;-28
2022/09/23 00:13:47;;;;;;;7.25;3.80;;;;;;;10.62;77.28;100239.25;5066612;28;20039;-27
2022/09/23 00:16:16;;;;;;;7.72;3.08;;;;;;;10.58;77.37;100254.03;5067047;28;20024;-26
2022/09/23 00:18:42;;;;;;;5.28;3.28;;;;;;;10.57;77.41;100252.41;5066702;28;20547;-26
2022/09/23 00:21:11;;;;;;;6.38;4.38;;;;;;;10.74;76.04;100248.19;5066925;28;20082;-27
2022/09/23 00:23:39;;;;;;;6.25;3.30;;;;;;;10.60;76.20;100246.66;5066633;28;20423;-30
2022/09/23 00:26:06;;;;;;;6.65;3.08;;;;;;;10.45;76.93;100238.94;5048234;28;20561;-29
2022/09/23 00:28:33;;;;;;;6.72;3.40;;;;;;;10.28;78.59;100238.59;5066583;28;20036;-29
2022/09/23 00:31:08;;;;;;;5.95;3.22;;;;;;;10.32;78.32;100237.19;5066923;28;20028;-30
2022/09/23 00:33:33;;;;;;;6.25;3.17;;;;;;;10.63;77.32;100240.91;5048517;28;20404;-26
2022/09/23 00:36:00;;;;;;;5.50;3.00;;;;;;;10.60;77.35;100243.97;5066586;28;20020;-27
2022/09/23 00:38:26;;;;;;;6.53;3.67;;;;;;;10.58;77.37;100248.72;5066712;28;20423;-28
2022/09/23 00:40:52;;;;;;;6.32;3.40;;;;;;;10.36;77.70;100219.72;5066317;28;20024;-26
2022/09/23 00:43:18;;;;;;;6.55;3.65;;;;;;;10.16;79.38;100245.63;5066834;28;20035;-27
2022/09/23 00:45:49;;;;;;;6.20;3.67;;;;;;;10.57;77.62;100231.09;5069929;28;20043;-27
2022/09/23 00:48:20;;;;;;;6.75;3.35;;;;;;;10.38;77.98;100251.47;5070181;28;20031;-26
2022/09/23 00:50:52;;;;;;;5.80;3.17;;;;;;;10.19;78.68;100253.19;5070506;28;20109;-28
2022/09/23 00:53:22;;;;;;;7.10;3.13;;;;;;;9.90;79.77;100247.34;5052206;28;20412;-27
2022/09/23 00:55:55;;;;;;;5.35;3.50;;;;;;;10.02;79.84;100251.00;5069951;28;20056;-27
2022/09/23 00:58:25;;;;;;;4.78;3.10;;;;;;;10.17;78.17;100236.59;5070214;28;20691;-25
2022/09/23 01:00:52;;;;;;;6.13;3.70;;;;;;;10.22;77.52;100250.09;5070052;28;20032;-26
2022/09/23 01:03:18;;;;;;;5.97;3.55;;;;;;;10.38;77.07;100249.66;5052021;28;20024;-27
2022/09/23 01:05:45;;;;;;;6.30;3.47;;;;;;;10.30;77.21;100251.72;5069422;28;20053;-28
2022/09/23 01:08:13;;;;;;;5.72;3.70;;;;;;;10.10;78.04;100230.47;5069834;28;20032;-31
2022/09/23 01:10:57;;;;;;;7.10;3.40;;;;;;;9.95;79.60;100250.22;5051539;28;20036;-27
2022/09/23 01:13:31;;;;;;;6.18;3.10;;;;;;;10.13;78.49;100249.50;5069942;28;20129;-29
2022/09/23 01:16:18;;;;;;;6.97;3.30;;;;;;;10.06;78.86;100246.88;5069453;28;20111;-29
2022/09/23 01:19:18;;;;;;;5.05;3.10;;;;;;;10.17;78.58;100242.72;5069874;28;20025;-30
2022/09/23 01:21:56;;;;;;;4.68;3.00;;;;;;;10.20;78.88;100236.19;5069935;28;20021;-29
2022/09/23 01:24:44;;;;;;;5.90;3.40;;;;;;;10.24;78.14;100242.72;5069653;28;20459;-27
2022/09/23 01:27:22;;;;;;;9.57;4.30;;;;;;;10.17;78.27;100241.91;5051562;28;20040;-27
2022/09/23 01:30:14;;;;;;;6.53;3.85;;;;;;;10.26;78.88;100236.13;5068944;28;20032;-28
2022/09/23 01:32:45;;;;;;;5.45;3.13;;;;;;;10.20;79.64;100231.66;5051557;28;20040;-26
2022/09/23 01:35:37;;;;;;;5.30;3.10;;;;;;;10.23;79.41;100236.53;5069308;28;20033;-26
2022/09/23 01:38:24;;;;;;;5.32;3.10;;;;;;;10.36;78.76;100245.53;5050857;28;20032;-27
2022/09/23 01:41:05;;;;;;;6.10;3.38;;;;;;;10.13;80.43;100238.03;5069138;28;20047;-26
2022/09/23 01:43:52;;;;;;;7.78;2.85;;;;;;;10.16;78.88;100218.97;5069255;28;20064;-26
2022/09/23 01:46:49;;;;;;;5.70;3.03;;;;;;;10.42;78.58;100234.88;5069113;28;20044;-26
2022/09/23 01:49:20;;;;;;;6.45;2.80;;;;;;;9.85;80.64;100221.34;5068436;28;20462;-27
2022/09/23 01:51:52;;;;;;;7.15;3.08;;;;;;;9.95;80.81;100228.91;5068976;28;20037;-29
2022/09/23 01:54:33;;;;;;;5.80;2.70;;;;;;;10.26;78.37;100236.13;5068933;28;20028;-26
2022/09/23 01:57:12;;;;;;;4.60;2.90;;;;;;;9.96;78.64;100203.88;5067732;28;20040;-27
2022/09/23 01:59:47;;;;;;;5.32;2.45;;;;;;;9.68;80.21;100224.66;5068918;28;20031;-28
2022/09/23 02:02:18;;;;;;;4.40;2.50;;;;;;;9.70;80.54;100214.63;5068944;28;20028;-28
2022/09/23 02:04:56;;;;;;;4.30;2.20;;;;;;;9.97;80.21;100236.66;5068644;28;20036;-27
2022/09/23 02:07:44;;;;;;;4.53;2.92;;;;;;;9.91;79.85;100235.69;5068546;28;20511;-28
2022/09/23 02:10:10;;;;;;;4.00;2.25;;;;;;;9.82;80.44;100240.41;5068034;28;20036;-27
2022/09/23 02:12:37;;;;;;;4.00;2.10;;;;;;;10.20;78.41;100231.66;5068127;28;20025;-26
2022/09/23 02:15:10;;;;;;;4.50;2.37;;;;;;;10.32;77.92;100229.19;5068184;28;20500;-28
2022/09/23 02:18:02;;;;;;;4.07;2.50;;;;;;;10.38;76.91;100233.66;5048736;28;20032;-26
2022/09/23 02:20:31;;;;;;;3.75;2.40;;;;;;;10.18;77.71;100222.25;5048509;28;20025;-27
2022/09/23 02:23:11;;;;;;;4.97;2.70;;;;;;;10.02;77.82;100208.38;5013528;28;20033;-26
2022/09/23 02:25:40;;;;;;;7.00;2.65;;;;;;;9.89;80.20;100229.75;5063021;28;20447;-25
2022/09/23 02:28:13;;;;;;;3.95;1.98;;;;;;;9.84;79.22;100218.88;5067689;28;20110;-26
2022/09/23 02:30:50;;;;;;;3.42;2.33;;;;;;;9.95;78.64;100226.25;5050324;28;20207;-29
2022/09/23 02:33:37;;;;;;;4.50;2.50;;;;;;;9.83;78.78;100225.25;5067894;28;20037;-30
2022/09/23 02:36:18;;;;;;;3.75;2.25;;;;;;;9.74;79.19;100199.88;5065286;28;20507;-29
2022/09/23 02:38:51;;;;;;;4.07;2.47;;;;;;;9.58;79.63;100206.47;5065591;28;20032;-30
2022/09/23 02:41:26;;;;;;;3.60;2.50;;;;;;;9.84;79.05;100233.00;5067538;28;20484;-28
2022/09/23 02:44:03;;;;;;;3.65;2.20;;;;;;;9.49;80.18;100221.84;5067567;28;20480;-27
2022/09/23 02:46:29;;;;;;;5.82;2.17;;;;;;;9.43;80.49;100217.34;5066049;28;20105;-28
2022/09/23 02:49:01;;;;;;;3.83;2.42;;;;;;;9.22;81.17;100213.91;5067308;28;20033;-30
2022/09/23 02:51:37;;;;;;;3.22;2.10;;;;;;;9.09;81.84;100211.22;5067427;28;20024;-27
2022/09/23 02:54:04;;;;;;;9.15;2.53;;;;;;;9.25;81.24;100224.16;5064674;28;20500;-26
2022/09/23 02:56:29;;;;;;;4.32;2.17;;;;;;;9.27;80.82;100239.06;5067555;28;20848;-28
2022/09/23 02:58:55;;;;;;;4.50;2.40;;;;;;;9.03;82.07;100244.81;5049461;28;20060;-28
2022/09/23 03:01:47;;;;;;;6.07;2.47;;;;;;;9.23;81.22;100236.84;5067785;28;20032;-27
2022/09/23 03:04:19;;;;;;;4.05;2.40;;;;;;;9.47;80.39;100247.84;5067501;28;20630;-28
2022/09/23 03:07:07;;;;;;;3.10;2.05;;;;;;;9.41;78.38;100220.22;5067047;28;20558;-27
2022/09/23 03:09:39;;;;;;;5.25;2.25;;;;;;;9.63;77.81;100227.97;5049462;28;20124;-27
2022/09/23 03:12:22;;;;;;;3.58;1.92;;;;;;;9.49;77.55;100229.84;5066914;28;20036;-28
2022/09/23 03:15:01;;;;;;;4.40;2.13;;;;;;;9.29;79.82;100239.69;5067460;28;20032;-28
2022/09/23 03:17:50;;;;;;;3.90;2.03;;;;;;;9.05;80.71;100223.31;5049371;28;20102;-28
2022/09/23 03:20:42;;;;;;;4.75;2.35;;;;;;;9.44;78.75;100245.63;5067249;28;20063;-27
2022/09/23 03:23:12;;;;;;;5.90;2.50;;;;;;;9.38;78.96;100244.59;5032374;28;20025;-27
2022/09/23 03:25:43;;;;;;;4.07;2.78;;;;;;;9.32;79.64;100239.28;5066992;28;20035;-26
2022/09/23 03:28:09;;;;;;;4.60;2.65;;;;;;;9.37;79.11;100237.63;5067058;28;20025;-26
2022/09/23 03:30:36;;;;;;;4.70;2.88;;;;;;;9.30;78.91;100225.38;5067142;28;20488;-25
2022/09/23 03:33:04;;;;;;;4.65;2.85;;;;;;;9.45;78.33;100240.06;5067422;28;20036;-31
2022/09/23 03:36:48;;;;;;;5.65;3.05;;;;;;;9.43;78.15;100235.97;5067125;28;20039;-27
2022/09/23 03:38:23;;;;;;;3.72;2.60;;;;;;;9.36;77.58;100227.22;5067020;28;20036;-26
2022/09/23 03:40:52;;;;;;;4.47;2.58;;;;;;;9.44;77.98;100242.97;5066947;28;20389;-27
2022/09/23 03:43:17;;;;;;;4.90;2.67;;;;;;;9.37;77.73;100226.16;5067077;28;20040;-26
2022/09/23 03:45:45;;;;;;;4.32;2.70;;;;;;;9.46;78.09;100246.22;5067009;28;20032;-27
2022/09/23 03:48:10;;;;;;;4.73;2.80;;;;;;;9.48;77.07;100227.38;5066584;28;20028;-27
2022/09/23 03:50:36;;;;;;;4.03;2.55;;;;;;;9.38;78.14;100252.59;5066784;28;20678;-27
2022/09/23 03:53:01;;;;;;;4.97;2.45;;;;;;;9.19;78.85;100248.06;5066993;28;20021;-27
2022/09/23 03:55:26;;;;;;;4.03;2.65;;;;;;;9.27;78.22;100247.06;5066843;28;20081;-27
2022/09/23 03:57:54;;;;;;;4.63;2.70;;;;;;;9.40;77.25;100226.56;5048679;28;20123;-26
2022/09/23 04:00:19;;;;;;;4.53;2.70;;;;;;;9.40;77.28;100252.38;5048739;28;20127;-30
2022/09/23 04:02:45;;;;;;;4.22;2.60;;;;;;;9.48;76.92;100252.16;5066465;28;20736;-26
2022/09/23 04:05:12;;;;;;;5.13;3.10;;;;;;;9.40;77.68;100260.38;5066720;28;20057;-29
2022/09/23 04:07:38;;;;;;;5.45;3.15;;;;;;;9.41;77.63;100260.13;5066821;28;20060;-27
2022/09/23 04:10:05;;;;;;;6.18;2.90;;;;;;;9.13;79.33;100267.53;5066765;28;20034;-28
2022/09/23 04:12:30;;;;;;;4.65;2.90;;;;;;;8.97;79.82;100237.66;5066671;28;20484;-27
2022/09/23 04:14:55;;;;;;;5.28;3.20;;;;;;;8.92;80.84;100249.91;5066876;28;20086;-29
2022/09/23 04:17:21;;;;;;;4.90;2.90;;;;;;;8.72;81.41;100265.84;5048283;28;20024;-28
2022/09/23 04:19:46;;;;;;;5.57;2.85;;;;;;;8.59;82.09;100261.31;5068395;28;20042;-28
2022/09/23 04:22:12;;;;;;;5.80;3.25;;;;;;;8.94;80.35;100253.19;5070894;28;20082;-27
2022/09/23 04:24:37;;;;;;;6.72;3.50;;;;;;;9.00;80.17;100273.66;5070535;28;20116;-28
2022/09/23 04:27:03;;;;;;;5.50;3.33;;;;;;;8.75;80.70;100273.44;5070542;28;20466;-26
2022/09/23 04:29:28;;;;;;;7.75;3.70;;;;;;;8.52;81.68;100268.44;5070429;28;20028;-26
2022/09/23 04:31:54;;;;;;;5.25;3.60;;;;;;;8.45;82.34;100287.84;5070101;28;20106;-27
2022/09/23 04:34:20;;;;;;;9.18;3.30;;;;;;;8.52;81.24;100281.72;5070494;28;20101;-30
2022/09/23 04:36:47;;;;;;;5.70;3.17;;;;;;;8.49;80.73;100267.00;5052348;28;20028;-25
2022/09/23 04:39:17;;;;;;;6.63;3.33;;;;;;;8.75;79.28;100286.72;5070563;28;20033;-27
2022/09/23 04:41:43;;;;;;;7.55;3.28;;;;;;;8.77;79.50;100288.16;5070490;28;20032;-30
2022/09/23 04:44:11;;;;;;;6.90;3.20;;;;;;;8.79;80.52;100287.97;5070062;28;20809;-26
2022/09/23 04:46:37;;;;;;;9.15;3.78;;;;;;;8.87;80.29;100294.91;5051885;28;20605;-27
2022/09/23 04:49:04;;;;;;;6.53;3.55;;;;;;;8.70;80.56;100284.66;5052136;28;20036;-26
2022/09/23 04:51:29;;;;;;;8.63;3.90;;;;;;;8.78;80.31;100289.78;5070146;28;20032;-26
2022/09/23 04:53:55;;;;;;;8.75;4.13;;;;;;;8.73;80.71;100284.25;5069860;28;20040;-27
2022/09/23 04:56:26;;;;;;;8.88;4.03;;;;;;;9.13;79.35;100304.78;5069952;28;20109;-25
2022/09/23 04:58:52;;;;;;;7.25;4.10;;;;;;;9.10;78.85;100290.03;5070093;28;20063;-30
2022/09/23 05:01:18;;;;;;;6.68;4.15;;;;;;;9.15;79.10;100308.03;5069714;28;20035;-27
2022/09/23 05:03:45;;;;;;;6.75;4.68;;;;;;;9.08;79.05;100288.63;5069560;28;20040;-28
2022/09/23 05:06:12;;;;;;;8.02;5.30;;;;;;;9.32;78.14;100308.47;5069781;28;20053;-28
2022/09/23 05:08:45;;;;;;;6.75;4.65;;;;;;;9.23;78.36;100311.34;5069785;28;20036;-28
2022/09/23 05:11:10;;;;;;;10.10;4.90;;;;;;;9.39;78.17;100309.28;5069721;28;20032;-31
2022/09/23 05:13:36;;;;;;;8.32;4.70;;;;;;;9.41;77.63;100301.91;5069511;28;20031;-26
2022/09/23 05:16:06;;;;;;;7.03;4.72;;;;;;;9.48;78.00;100318.72;5069542;28;20039;-26
2022/09/23 05:18:39;;;;;;;8.77;4.95;;;;;;;9.47;77.16;100306.41;5069527;28;20059;-29
2022/09/23 05:21:06;;;;;;;8.93;4.60;;;;;;;9.67;77.69;100326.91;5069529;28;20032;-28
2022/09/23 05:23:31;;;;;;;11.38;4.70;;;;;;;9.76;77.54;100325.66;5069367;28;20123;-25
2022/09/23 05:25:59;;;;;;;7.40;5.05;;;;;;;9.51;77.67;100307.66;5069418;28;20536;-29
2022/09/23 05:28:27;;;;;;;7.50;4.70;;;;;;;9.72;76.76;100306.59;5051232;28;20028;-27
2022/09/23 05:30:52;;;;;;;8.05;5.05;;;;;;;9.53;78.53;100310.91;5069192;28;20068;-28
2022/09/23 05:33:18;;;;;;;8.88;5.50;;;;;;;9.63;77.06;100306.00;5069234;28;20049;-27
2022/09/23 05:35:47;;;;;;;9.68;5.30;;;;;;;9.83;77.32;100326.47;5069137;28;20043;-31
2022/09/23 05:38:16;;;;;;;11.68;5.82;;;;;;;9.88;76.86;100326.66;5069248;28;20115;-27
2022/09/23 05:40:42;;;;;;;11.30;7.25;;;;;;;9.94;77.05;100328.47;5069142;28;20071;-25
2022/09/23 05:43:07;;;;;;;9.73;6.32;;;;;;;9.65;78.52;100314.59;5069384;28;20507;-32
2022/09/23 05:45:33;;;;;;;10.52;6.07;;;;;;;9.96;78.48;100326.44;5069204;28;20409;-27
2022/09/23 05:47:58;;;;;;;11.77;6.32;;;;;;;10.17;77.79;100333.34;5069004;28;20062;-27
2022/09/23 05:50:23;;;;;;;10.63;7.15;;;;;;;10.10;76.79;100311.22;5068960;28;20753;-26
2022/09/23 05:52:49;;;;;;;9.88;6.60;;;;;;;10.28;77.22;100321.22;5069136;28;20048;-27
2022/09/23 05:55:15;;;;;;;10.38;6.40;;;;;;;10.53;76.54;100332.03;5069296;28;20488;-27
2022/09/23 05:57:41;;;;;;;12.70;6.75;;;;;;;10.59;76.13;100327.69;5068737;28;20043;-27
2022/09/23 06:00:07;;;;;;;9.85;6.53;;;;;;;10.36;76.05;100314.84;5068753;28;20032;-26
2022/09/23 06:02:32;;;;;;;10.95;6.88;;;;;;;10.11;77.48;100322.69;5068937;28;20066;-26
2022/09/23 06:04:58;;;;;;;10.27;6.68;;;;;;;10.11;76.59;100315.53;5068794;28;20088;-26
2022/09/23 06:07:23;;;;;;;11.63;7.40;;;;;;;9.82;77.84;100300.84;5068447;28;20489;-27
2022/09/23 06:09:49;;;;;;;16.73;7.45;;;;;;;10.12;78.43;100321.69;5068194;28;20032;-30
2022/09/23 06:12:15;;;;;;;11.68;7.68;;;;;;;10.49;77.12;100320.16;5050400;28;20028;-29
2022/09/23 06:14:40;;;;;;;12.48;7.78;;;;;;;10.64;76.55;100319.88;5068464;28;20424;-28
2022/09/23 06:17:05;;;;;;;12.88;8.02;;;;;;;10.92;77.49;100329.38;5068574;28;20021;-25
2022/09/23 06:19:31;;;;;;;11.38;8.00;;;;;;;11.06;76.28;100322.91;5068511;28;20454;-25
2022/09/23 06:21:56;;;;;;;12.55;7.72;;;;;;;11.36;76.92;100327.63;5068143;28;20059;-26
2022/09/23 06:24:22;;;;;;;11.43;8.30;;;;;;;11.61;76.50;100332.97;5068280;28;20047;-27
2022/09/23 06:26:47;;;;;;;17.35;11.80;;;;;;;11.75;74.82;100302.44;5068473;28;20032;-26
2022/09/23 06:29:13;;;;;;;12.32;8.52;;;;;;;12.00;73.92;100329.13;5068265;28;20158;-27
2022/09/23 06:31:40;;;;;;;12.05;8.90;;;;;;;12.13;73.76;100308.63;5068409;28;20025;-26
2022/09/23 06:34:06;;;;;;;11.50;8.35;;;;;;;12.52;73.94;100317.22;5067884;28;20024;-28
2022/09/23 06:36:31;;;;;;;12.88;8.48;;;;;;;12.65;72.03;100301.00;5068067;28;20063;-28
2022/09/23 06:38:57;;;;;;;12.45;8.73;;;;;;;12.69;71.64;100310.22;5067804;28;20037;-27
2022/09/23 06:41:22;;;;;;;12.10;8.38;;;;;;;12.99;71.11;100296.78;5067377;28;20024;-27
2022/09/23 06:43:48;;;;;;;11.75;8.30;;;;;;;13.31;69.47;100326.00;5067560;28;20033;-26
2022/09/23 06:46:15;;;;;;;11.55;8.02;;;;;;;13.24;70.19;100327.97;5050110;28;20127;-26
2022/09/23 06:48:42;;;;;;;13.13;8.63;;;;;;;13.18;68.60;100324.31;5049866;28;20094;-27
2022/09/23 06:51:12;;;;;;;11.38;7.68;;;;;;;13.03;70.54;100326.59;5068049;28;20039;-27
2022/09/23 06:53:38;;;;;;;11.05;8.43;;;;;;;13.12;70.09;100333.28;5067846;28;20032;-26
2022/09/23 06:56:10;;;;;;;12.27;8.48;;;;;;;13.20;69.85;100340.97;5067868;28;20451;-26
2022/09/23 06:58:37;;;;;;;11.07;8.13;;;;;;;13.40;69.45;100339.88;5067884;28;20123;-29
2022/09/23 07:01:14;;;;;;;10.32;8.10;;;;;;;13.69;68.47;100334.66;5067685;28;20094;-28
2022/09/23 07:03:40;;;;;;;11.63;8.50;;;;;;;13.84;68.09;100318.94;5067741;28;20044;-28
2022/09/23 07:06:06;;;;;;;13.40;8.48;;;;;;;14.01;67.82;100332.44;5066889;28;20064;-30
2022/09/23 07:08:33;;;;;;;9.77;7.47;;;;;;;14.29;66.30;100333.56;5049453;28;20638;-28
2022/09/23 07:11:00;;;;;;;11.02;7.00;;;;;;;14.09;66.46;100320.53;5067413;28;20051;-27
2022/09/23 07:13:28;;;;;;;11.53;7.40;;;;;;;14.44;66.54;100332.03;5067833;28;20051;-28
2022/09/23 07:15:59;;;;;;;9.38;7.05;;;;;;;14.60;64.79;100324.28;5067346;28;20028;-28
2022/09/23 07:18:25;;;;;;;10.55;7.03;;;;;;;14.79;64.20;100344.53;5067362;28;20028;-25
2022/09/23 07:20:52;;;;;;;10.05;6.95;;;;;;;15.01;63.51;100341.16;5067176;28;20048;-28
2022/09/23 07:23:17;;;;;;;15.10;6.95;;;;;;;15.20;61.90;100341.75;5067565;28;20021;-27
2022/09/23 07:25:45;;;;;;;9.13;5.95;;;;;;;15.34;59.22;100350.31;5067422;28;20385;-29
2022/09/23 07:28:11;;;;;;;8.38;5.35;;;;;;;15.22;60.59;100335.09;5066768;28;20033;-29
2022/09/23 07:30:37;;;;;;;7.65;5.50;;;;;;;15.36;59.75;100324.00;5067623;28;20063;-27
2022/09/23 07:33:03;;;;;;;7.97;5.70;;;;;;;15.75;59.71;100348.28;5066946;28;20021;-26
2022/09/23 07:35:29;;;;;;;7.57;5.45;;;;;;;15.75;59.48;100342.91;5067295;28;20074;-29
2022/09/23 07:37:54;;;;;;;7.28;5.75;;;;;;;15.74;58.26;100341.31;5067030;28;20497;-26
2022/09/23 07:40:20;;;;;;;7.82;5.20;;;;;;;15.64;57.92;100353.47;5067103;28;20157;-30
2022/09/23 07:42:46;;;;;;;7.57;4.80;;;;;;;15.86;56.61;100358.16;5067179;28;20036;-28
2022/09/23 07:45:12;;;;;;;8.88;4.70;;;;;;;15.52;55.30;100360.81;5067060;28;20495;-29
2022/09/23 07:47:38;;;;;;;7.95;4.97;;;;;;;15.52;54.80;100360.81;5066876;28;20079;-28
2022/09/23 07:50:06;;;;;;;7.68;4.90;;;;;;;15.34;55.09;100331.50;5066559;28;20078;-28
2022/09/23 07:52:35;;;;;;;6.95;4.72;;;;;;;15.75;54.82;100343.75;5067037;28;20060;-31
2022/09/23 07:55:04;;;;;;;7.72;4.75;;;;;;;16.23;54.46;100347.63;5048453;28;20458;-29
2022/09/23 07:57:30;;;;;;;7.15;4.65;;;;;;;16.29;52.85;100340.44;5067126;28;20021;-29
2022/09/23 07:59:55;;;;;;;6.13;4.47;;;;;;;16.31;53.39;100324.06;5066489;28;20040;-29
2022/09/23 08:02:21;;;;;;;5.70;4.15;;;;;;;16.41;53.31;100322.28;5066485;28;20044;-28
2022/09/23 08:04:48;;;;;;;7.13;4.10;;;;;;;16.56;50.95;100343.19;5066592;28;20071;-26
2022/09/23 08:07:14;;;;;;;6.70;4.65;;;;;;;16.87;51.18;100341.66;5066533;28;20503;-26
2022/09/23 08:09:42;;;;;;;6.07;4.28;;;;;;;16.77;52.18;100324.56;5066562;28;20021;-27
2022/09/23 08:12:09;;;;;;;8.18;4.20;;;;;;;16.93;50.83;100320.16;5048239;28;20059;-28
2022/09/23 08:14:34;;;;;;;6.18;4.40;;;;;;;17.09;49.76;100334.59;5066421;28;20033;-27
2022/09/23 08:17:00;;;;;;;6.57;4.22;;;;;;;16.90;48.78;100331.44;5066219;28;20400;-27
2022/09/23 08:19:25;;;;;;;7.45;4.30;;;;;;;16.75;50.20;100319.41;5066545;28;20024;-29
2022/09/23 08:21:51;;;;;;;6.85;4.80;;;;;;;17.09;49.28;100338.09;5066214;28;20033;-27
2022/09/23 08:24:19;;;;;;;6.88;4.30;;;;;;;16.98;49.86;100318.34;5066600;28;20028;-27
2022/09/23 08:26:45;;;;;;;5.70;4.32;;;;;;;17.19;49.83;100305.84;5066349;28;20040;-27
2022/09/23 08:29:13;;;;;;;6.15;4.32;;;;;;;17.48;50.53;100327.13;5066540;28;20032;-27
2022/09/23 08:31:39;;;;;;;6.28;4.32;;;;;;;17.51;49.38;100310.44;5066329;28;20028;-28
2022/09/23 08:34:05;;;;;;;6.82;4.75;;;;;;;17.84;48.96;100320.13;5066292;28;20044;-26
2022/09/23 08:36:31;;;;;;;7.72;4.50;;;;;;;18.01;47.95;100319.94;5066509;28;20036;-27
2022/09/23 08:38:56;;;;;;;7.78;3.83;;;;;;;17.77;46.21;100284.41;5048507;28;20028;-26
2022/09/23 08:41:53;;;;;;;10.13;4.60;;;;;;;18.09;46.90;100309.72;5066393;28;20029;-30
2022/09/23 08:44:40;;;;;;;8.38;4.57;;;;;;;18.35;47.30;100300.66;5066386;28;20025;-27
2022/09/23 08:47:12;;;;;;;5.77;3.90;;;;;;;18.12;45.47;100306.47;5066258;28;20029;-27
2022/09/23 08:49:49;;;;;;;5.40;3.50;;;;;;;17.73;44.56;100277.13;5066285;28;20039;-30
2022/09/23 08:52:41;;;;;;;;;;;;;;;18.22;45.47;100285.72;5066781;28;20037;-29
2022/09/23 08:55:11;;;;;;;8.10;3.55;;;;;;;18.37;43.78;100279.59;5042478;28;19913;-27
2022/09/23 08:58:28;;;;;;;7.75;3.88;;;;;;;18.45;43.55;100292.59;5066330;28;20875;-28
2022/09/23 09:00:59;;;;;;;7.03;3.63;;;;;;;18.61;44.73;100289.91;5039567;28;20385;-28
2022/09/23 09:03:33;;;;;;;8.65;3.53;;;;;;;18.33;42.20;100278.50;5066336;28;20278;-27
2022/09/23 09:05:58;;;;;;;12.73;7.68;;;;;;;18.46;42.32;100288.78;5067859;28;20140;-27
2022/09/23 09:08:30;;;;;;;6.53;3.60;;;;;;;18.56;41.63;100277.22;5069777;28;20028;-27
2022/09/23 09:10:57;;;;;;;5.68;3.20;;;;;;;18.71;43.07;100278.31;5051637;28;20473;-29
2022/09/23 09:13:28;;;;;;;6.22;3.13;;;;;;;19.11;42.70;100277.56;5051341;28;20351;-26
2022/09/23 09:16:18;;;;;;;4.93;3.03;;;;;;;19.25;42.46;100283.25;5069300;28;20393;-28
2022/09/23 09:18:54;;;;;;;15.55;8.50;;;;;;;19.27;41.01;100279.19;5069264;28;20423;-29
2022/09/23 09:21:37;;;;;;;3.97;2.55;;;;;;;19.38;39.03;100287.31;5069754;28;20036;-27
2022/09/23 09:24:15;;;;;;;5.82;3.55;;;;;;;19.31;39.95;100265.13;5069104;28;20093;-29
2022/09/23 09:26:40;;;;;;;9.50;5.38;;;;;;;19.76;41.36;100288.63;5069647;28;20111;-28
2022/09/23 09:29:28;;;;;;;6.93;3.40;;;;;;;19.97;40.79;100283.94;5051040;28;20119;-27
2022/09/23 09:31:53;;;;;;;;;;;;;;;20.08;39.87;100273.88;5069477;28;20029;-29
2022/09/23 09:34:37;;;;;;;3.50;2.53;;;;;;;20.29;39.27;100258.38;5069659;28;19917;-27
2022/09/23 09:37:34;;;;;;;6.28;3.53;;;;;;;20.33;40.45;100275.69;5069452;28;20016;-26
2022/09/23 09:40:00;;;;;;;4.68;2.95;;;;;;;20.08;38.94;100265.75;5069197;28;20499;-28
2022/09/23 09:42:35;;;;;;;4.72;2.80;;;;;;;19.85;38.78;100264.50;5068046;28;20028;-27
2022/09/23 09:45:09;;;;;;;4.80;2.80;;;;;;;19.90;38.79;100256.38;5030932;28;20064;-27
2022/09/23 09:47:59;;;;;;;5.30;2.80;;;;;;;20.30;38.21;100278.94;5048781;28;20029;-26
2022/09/23 09:50:47;;;;;;;3.65;2.45;;;;;;;20.61;37.22;100276.09;5068264;28;20500;-27
2022/09/23 09:53:26;;;;;;;3.53;2.30;;;;;;;20.57;36.43;100275.00;5068812;28;20029;-27
2022/09/23 09:56:11;;;;;;;4.18;2.58;;;;;;;19.79;37.93;100271.81;5068510;28;20036;-31
2022/09/23 09:58:59;;;;;;;3.70;2.70;;;;;;;20.27;38.77;100265.97;5068632;28;20631;-27
2022/09/23 10:01:30;;;;;;;4.53;2.42;;;;;;;20.68;39.00;100260.34;5068553;28;20032;-32
2022/09/23 10:03:59;;;;;;;5.20;2.60;;;;;;;20.91;35.69;100263.44;5068513;28;20029;-27
2022/09/23 10:06:28;;;;;;;3.00;2.08;;;;;;;21.20;34.97;100282.44;5068299;28;20052;-27
2022/09/23 10:09:12;;;;;;;2.90;2.08;;;;;;;20.89;33.53;100276.47;5068345;28;20028;-27
2022/09/23 10:11:39;;;;;;;8.18;3.83;;;;;;;20.87;35.92;100271.31;5068024;28;20048;-28
2022/09/23 10:14:09;;;;;;;5.93;3.30;;;;;;;20.92;36.77;100265.03;5068300;28;20121;-29
2022/09/23 10:16:36;;;;;;;4.30;2.70;;;;;;;21.18;36.49;100269.16;5067026;28;20029;-28
2022/09/23 10:19:03;;;;;;;4.88;2.47;;;;;;;21.10;35.47;100239.94;5068064;28;20037;-30
2022/09/23 10:21:35;;;;;;;3.38;1.92;;;;;;;21.12;33.58;100270.28;5049986;28;20097;-26
2022/09/23 10:24:04;;;;;;;2.58;1.92;;;;;;;21.15;33.51;100263.50;5067723;28;20040;-29
2022/09/23 10:26:42;;;;;;;2.50;2.00;;;;;;;21.00;34.34;100269.84;5068169;28;20086;-31
2022/09/23 10:29:29;;;;;;;2.65;2.05;;;;;;;21.72;34.54;100228.50;5067901;28;20408;-28
2022/09/23 10:32:17;;;;;;;3.42;2.15;;;;;;;21.56;33.44;100257.72;5067711;28;20412;-27
2022/09/23 10:34:45;;;;;;;3.83;2.50;;;;;;;21.69;33.72;100239.94;5067304;28;20101;-27
2022/09/23 10:37:19;;;;;;;2.72;1.90;;;;;;;21.17;32.67;100251.28;5068008;28;20041;-29
2022/09/23 10:48:28;;;;;;;4.35;2.50;;;;;;;22.21;33.16;100239.03;5067517;28;20048;-27
2022/09/23 10:50:55;;;;;;;6.68;2.95;;;;;;;22.37;32.67;100234.22;5067740;28;20038;-26
2022/09/23 10:53:49;;;;;;;4.27;1.80;;;;;;;22.39;31.22;100221.16;5067272;28;20064;-28
2022/09/23 10:56:41;;;;;;;3.33;1.77;;;;;;;22.18;33.17;100219.78;5064116;28;20040;-29
2022/09/23 10:59:16;;;;;;;3.28;2.13;;;;;;;22.34;32.00;100220.41;5067325;28;20051;-30
2022/09/23 11:02:22;;;;;;;3.97;2.10;;;;;;;22.63;32.08;100231.91;5067002;28;20044;-29
2022/09/23 11:04:54;;;;;;;3.60;2.30;;;;;;;22.17;32.92;100218.16;5049070;28;20041;-28
2022/09/23 11:07:39;;;;;;;3.22;2.00;;;;;;;22.38;31.46;100219.53;5067365;28;20048;-28
2022/09/23 11:11:02;;;;;;;2.80;1.88;;;;;;;22.44;31.18;100228.41;5067108;28;20474;-27
2022/09/23 11:13:55;;;;;;;4.38;1.90;;;;;;;22.54;31.03;100216.59;4985102;28;20030;-27
2022/09/23 11:16:37;;;;;;;4.63;2.05;;;;;;;23.08;30.79;100208.94;4985244;28;20069;-27
2022/09/23 11:19:24;;;;;;;4.97;2.03;;;;;;;23.07;30.61;100205.41;5029658;28;20033;-27
2022/09/23 11:22:14;;;;;;;4.43;2.20;;;;;;;23.03;31.14;100207.13;5048777;28;20493;-27
2022/09/23 11:24:59;;;;;;;3.17;2.00;;;;;;;22.42;30.76;100187.13;5067041;28;20499;-26
2022/09/23 11:27:57;;;;;;;3.72;2.60;;;;;;;22.30;31.55;100186.78;5067127;28;20117;-28
2022/09/23 11:30:35;;;;;;;3.38;2.20;;;;;;;22.65;31.35;100201.72;5067157;28;20522;-26
2022/09/23 11:33:25;;;;;;;3.10;1.80;;;;;;;22.82;30.54;100196.56;5066979;28;20028;-29
2022/09/23 11:36:19;;;;;;;3.47;1.85;;;;;;;22.71;30.15;100195.09;5067078;28;20036;-29
2022/09/23 11:38:49;;;;;;;3.45;1.83;;;;;;;23.01;28.88;100182.09;5066796;28;20028;-27
2022/09/23 11:41:37;;;;;;;3.42;1.80;;;;;;;24.13;28.11;100183.72;5048292;28;20046;-28
2022/09/23 11:44:19;;;;;;;2.92;1.65;;;;;;;24.53;26.37;100181.22;5065866;28;20029;-28
2022/09/23 11:46:54;;;;;;;3.13;1.60;;;;;;;24.95;26.46;100165.44;5066776;28;20495;-28
2022/09/23 11:49:38;;;;;;;2.30;1.65;;;;;;;24.66;27.86;100172.16;5066818;28;20051;-28
2022/09/23 11:52:12;;;;;;;2.10;1.63;;;;;;;24.72;25.79;100172.84;5066511;28;20096;-31
2022/09/23 11:54:59;;;;;;;2.20;1.52;;;;;;;25.57;25.77;100167.31;5048542;28;20079;-27
2022/09/23 11:57:47;;;;;;;1.70;1.42;;;;;;;25.60;24.81;100162.03;5066638;28;20036;-27
2022/09/23 12:00:21;;;;;;;4.38;1.77;;;;;;;26.02;27.42;100158.91;5066673;28;20028;-28